Time;durP1;ratioP1;P1;durP2;ratioP2;P2;SDS_P1;SDS_P2;PMS_P1;PMS_P2;Temp;Humidity;BMP_temperature;BMP_pressure;BME280_temperature;BME280_humidity;BME280_pressure;Samples;Min_cycle;Max_cycle;Signal;HPM_P1;HPM_P2
2023/04/11 00:00:28;;;;;;;5.18;1.60;;;10.30;99.90;;;;;;4980811;28;20219;-44
2023/04/11 00:02:58;;;;;;;6.53;1.75;;;10.30;99.90;;;;;;4988887;28;20175;-43
2023/04/11 00:05:27;;;;;;;9.27;1.67;;;10.30;99.90;;;;;;4989273;28;20180;-44
2023/04/11 00:07:53;;;;;;;3.30;1.40;;;10.40;99.90;;;;;;4988948;28;20169;-44
2023/04/11 00:10:18;;;;;;;2.05;1.40;;;10.40;99.90;;;;;;4989415;28;20188;-44
2023/04/11 00:12:44;;;;;;;5.35;1.55;;;10.30;99.90;;;;;;4992610;28;20173;-44
2023/04/11 00:15:10;;;;;;;8.18;1.80;;;10.30;99.90;;;;;;4992369;28;20580;-43
2023/04/11 00:17:36;;;;;;;4.38;1.60;;;10.40;99.90;;;;;;4992631;28;20778;-43
2023/04/11 00:20:06;;;;;;;4.20;1.60;;;10.40;99.90;;;;;;4991684;28;20570;-42
2023/04/11 00:22:34;;;;;;;5.95;2.00;;;10.40;99.90;;;;;;4992400;28;20252;-42
2023/04/11 00:25:00;;;;;;;8.80;1.70;;;10.40;99.90;;;;;;4992264;28;20259;-41
2023/04/11 00:27:25;;;;;;;8.55;1.80;;;10.40;99.90;;;;;;4991864;28;20684;-42
2023/04/11 00:29:51;;;;;;;6.47;2.13;;;10.40;99.90;;;;;;5038056;28;20179;-43
2023/04/11 00:32:17;;;;;;;3.33;1.50;;;10.40;99.90;;;;;;4991178;28;20237;-42
2023/04/11 00:34:43;;;;;;;10.00;1.90;;;10.40;99.90;;;;;;4992216;28;20255;-39
2023/04/11 00:37:08;;;;;;;7.18;1.70;;;10.40;99.90;;;;;;4991905;28;20274;-40
2023/04/11 00:39:34;;;;;;;8.07;1.92;;;10.30;99.90;;;;;;4991934;28;20195;-41
2023/04/11 00:42:07;;;;;;;6.97;1.73;;;10.30;99.90;;;;;;4991769;28;20177;-43
2023/04/11 00:44:33;;;;;;;10.32;2.33;;;10.30;99.90;;;;;;4992084;28;20318;-43
2023/04/11 00:47:01;;;;;;;6.28;1.85;;;10.30;99.90;;;;;;4991806;28;20286;-43
2023/04/11 00:49:28;;;;;;;7.35;1.80;;;10.30;99.90;;;;;;4991580;28;20647;-43
2023/04/11 00:51:54;;;;;;;9.50;2.00;;;10.30;99.90;;;;;;4991145;28;20199;-43
2023/04/11 00:54:20;;;;;;;4.03;1.67;;;10.20;99.90;;;;;;4991745;28;20223;-42
2023/04/11 00:56:46;;;;;;;5.60;2.28;;;10.20;99.90;;;;;;4991559;28;20181;-41
2023/04/11 00:59:11;;;;;;;8.80;1.88;;;10.20;99.90;;;;;;4990762;28;20165;-41
2023/04/11 01:01:37;;;;;;;8.52;2.78;;;10.20;99.90;;;;;;4971993;28;20209;-41
2023/04/11 01:04:04;;;;;;;13.57;2.83;;;10.30;99.90;;;;;;4972438;28;20177;-43
2023/04/11 01:06:31;;;;;;;16.25;2.28;;;10.20;99.90;;;;;;4972091;28;20166;-40
2023/04/11 01:08:56;;;;;;;11.73;2.45;;;10.10;99.90;;;;;;4971554;28;20760;-42
2023/04/11 01:11:23;;;;;;;9.32;2.75;;;10.10;99.90;;;;;;4972114;28;20169;-41
2023/04/11 01:13:50;;;;;;;9.98;2.58;;;10.10;99.90;;;;;;4971867;28;20296;-40
2023/04/11 01:16:20;;;;;;;13.15;3.10;;;10.00;99.90;;;;;;4971831;28;20173;-40
2023/04/11 01:18:46;;;;;;;13.57;3.13;;;10.00;99.90;;;;;;4971514;28;20185;-40
2023/04/11 01:21:12;;;;;;;8.90;2.70;;;9.90;99.90;;;;;;4971367;28;20209;-40
2023/04/11 01:23:38;;;;;;;12.35;2.47;;;9.80;99.90;;;;;;4971710;28;20180;-40
2023/04/11 01:26:03;;;;;;;7.65;2.20;;;9.80;99.90;;;;;;4972101;28;20698;-40
2023/04/11 01:28:29;;;;;;;16.63;3.03;;;9.70;99.90;;;;;;4971895;28;20173;-40
2023/04/11 01:30:56;;;;;;;12.38;2.83;;;9.70;99.90;;;;;;4954493;28;20178;-40
2023/04/11 01:33:22;;;;;;;8.98;2.53;;;9.70;99.90;;;;;;4951951;28;20536;-40
2023/04/11 01:35:47;;;;;;;16.88;2.88;;;9.70;99.90;;;;;;4952470;28;20185;-40
2023/04/11 01:38:13;;;;;;;8.38;2.47;;;9.70;99.90;;;;;;4960408;28;20694;-40
2023/04/11 01:40:40;;;;;;;10.43;2.20;;;9.80;99.90;;;;;;4971764;28;20295;-40
2023/04/11 01:43:08;;;;;;;12.95;2.67;;;9.70;99.90;;;;;;4971650;28;20162;-40
2023/04/11 01:45:34;;;;;;;12.30;3.33;;;9.70;99.90;;;;;;4972153;28;20174;-40
2023/04/11 01:48:05;;;;;;;9.88;2.80;;;9.70;99.90;;;;;;4971088;28;20629;-40
2023/04/11 01:50:31;;;;;;;8.88;2.50;;;9.60;99.90;;;;;;4971386;28;20178;-40
2023/04/11 01:52:56;;;;;;;8.35;2.85;;;9.60;99.90;;;;;;4971219;28;20189;-40
2023/04/11 01:55:22;;;;;;;13.15;3.35;;;9.60;99.90;;;;;;4972147;28;20169;-40
2023/04/11 01:57:47;;;;;;;7.55;2.00;;;9.50;99.90;;;;;;4970441;28;20262;-40
2023/04/11 02:00:13;;;;;;;9.93;2.13;;;9.50;99.90;;;;;;4970765;28;20217;-39
2023/04/11 02:02:39;;;;;;;10.05;2.63;;;9.40;99.90;;;;;;4970332;28;20641;-39
2023/04/11 02:05:05;;;;;;;11.98;2.85;;;9.40;99.90;;;;;;4971075;28;20230;-40
2023/04/11 02:07:31;;;;;;;9.75;2.50;;;;;;;;;;4970218;28;20170;-40
2023/04/11 02:09:57;;;;;;;10.07;2.60;;;9.40;99.90;;;;;;4970390;28;20217;-40
2023/04/11 02:12:23;;;;;;;9.45;3.10;;;9.40;99.90;;;;;;4970599;28;20663;-40
2023/04/11 02:14:49;;;;;;;12.88;2.60;;;9.40;99.90;;;;;;4970013;28;20173;-40
2023/04/11 02:17:16;;;;;;;12.60;2.55;;;9.40;99.90;;;;;;4970257;28;20177;-40
2023/04/11 02:19:44;;;;;;;10.88;2.10;;;9.40;99.90;;;;;;4970378;28;20198;-39
2023/04/11 02:22:13;;;;;;;9.98;2.10;;;9.40;99.90;;;;;;4970177;28;20191;-40
2023/04/11 02:24:39;;;;;;;14.55;3.05;;;;;;;;;;4969049;28;20169;-39
2023/04/11 02:27:05;;;;;;;22.10;3.38;;;;;;;;;;4990154;28;20196;-40
2023/04/11 02:29:31;;;;;;;18.17;2.78;;;;;;;;;;4989264;28;20169;-40
2023/04/11 02:31:57;;;;;;;14.65;3.60;;;;;;;;;;4989429;28;20176;-40
2023/04/11 02:34:23;;;;;;;9.02;2.28;;;;;;;;;;4988106;28;20632;-40
2023/04/11 02:36:48;;;;;;;17.65;3.80;;;9.30;99.90;;;;;;4989214;28;20632;-40
2023/04/11 02:39:14;;;;;;;14.48;3.00;;;9.30;99.90;;;;;;4989549;28;20169;-40
2023/04/11 02:41:43;;;;;;;20.35;3.10;;;9.30;99.90;;;;;;4989433;28;20293;-40
2023/04/11 02:44:10;;;;;;;10.30;3.25;;;9.20;99.90;;;;;;4989499;28;20161;-40
2023/04/11 02:46:35;;;;;;;9.80;2.50;;;9.20;99.90;;;;;;4988383;28;20180;-40
2023/04/11 02:49:01;;;;;;;12.15;3.20;;;9.20;99.90;;;;;;4989342;28;20165;-40
2023/04/11 02:51:27;;;;;;;15.48;3.78;;;;;;;;;;4989336;28;20215;-40
2023/04/11 02:53:53;;;;;;;13.23;2.75;;;9.10;99.90;;;;;;4989454;28;20653;-40
2023/04/11 02:56:21;;;;;;;22.20;3.72;;;9.00;99.90;;;;;;4974927;28;20718;-40
2023/04/11 02:58:47;;;;;;;17.05;3.30;;;9.00;99.90;;;;;;4969990;28;20185;-40
2023/04/11 03:01:17;;;;;;;16.00;3.22;;;;;;;;;;4969900;28;20291;-40
2023/04/11 03:03:43;;;;;;;19.90;3.75;;;8.90;99.90;;;;;;4969801;28;20641;-40
2023/04/11 03:06:09;;;;;;;14.13;3.72;;;8.90;99.90;;;;;;4969730;28;20197;-40
2023/04/11 03:08:36;;;;;;;16.27;3.15;;;8.90;99.90;;;;;;4970214;28;20217;-40
2023/04/11 03:11:02;;;;;;;13.68;2.83;;;8.80;99.90;;;;;;4969894;28;20212;-42
2023/04/11 03:13:28;;;;;;;14.30;3.53;;;8.80;99.90;;;;;;4970015;28;20253;-43
2023/04/11 03:15:54;;;;;;;14.70;2.92;;;8.80;99.90;;;;;;4969645;28;20751;-43
2023/04/11 03:18:21;;;;;;;18.60;3.45;;;8.80;99.90;;;;;;4981228;28;20256;-42
2023/04/11 03:20:47;;;;;;;9.65;2.75;;;8.80;99.90;;;;;;4988576;28;20721;-43
2023/04/11 03:23:13;;;;;;;18.55;3.80;;;8.70;99.90;;;;;;4988994;28;20252;-42
2023/04/11 03:25:39;;;;;;;17.67;2.80;;;8.70;99.90;;;;;;4988937;28;20259;-43
2023/04/11 03:28:05;;;;;;;24.17;4.53;;;8.70;99.90;;;;;;4989326;28;20169;-42
2023/04/11 03:30:31;;;;;;;18.85;3.78;;;8.70;99.90;;;;;;4988753;28;20173;-43
2023/04/11 03:33:00;;;;;;;15.10;3.10;;;8.70;99.90;;;;;;4988853;28;20161;-44
2023/04/11 03:35:26;;;;;;;14.95;3.25;;;8.70;99.90;;;;;;4988846;28;20164;-42
2023/04/11 03:37:52;;;;;;;11.75;2.75;;;;;;;;;;4977433;28;20184;-43
2023/04/11 03:40:18;;;;;;;13.90;2.63;;;8.70;99.90;;;;;;4969201;28;20217;-42
2023/04/11 03:42:48;;;;;;;16.00;2.65;;;8.60;99.90;;;;;;4969755;28;20565;-42
2023/04/11 03:45:14;;;;;;;15.35;4.00;;;8.60;99.90;;;;;;4971071;28;20590;-42
2023/04/11 03:47:39;;;;;;;16.20;2.95;;;8.60;99.90;;;;;;4972830;28;20276;-44
2023/04/11 03:50:08;;;;;;;11.55;2.90;;;8.70;99.90;;;;;;4973277;28;20177;-43
2023/04/11 03:52:34;;;;;;;10.93;2.47;;;8.60;99.90;;;;;;4973041;28;20178;-43
2023/04/11 03:55:01;;;;;;;9.63;2.58;;;8.70;99.90;;;;;;4972729;28;20261;-42
2023/04/11 03:57:27;;;;;;;9.70;2.47;;;8.70;99.90;;;;;;4981438;28;20177;-42
2023/04/11 03:59:54;;;;;;;17.02;3.30;;;8.70;99.90;;;;;;4991937;28;20207;-42
2023/04/11 04:02:20;;;;;;;11.57;3.88;;;;;;;;;;4991911;28;20706;-42
2023/04/11 04:04:47;;;;;;;20.77;3.38;;;8.60;99.90;;;;;;4991689;28;20173;-42
2023/04/11 04:07:13;;;;;;;17.27;3.00;;;8.70;99.90;;;;;;4991996;28;20172;-44
2023/04/11 04:09:40;;;;;;;7.45;2.35;;;8.80;99.90;;;;;;4991864;28;20772;-43
2023/04/11 04:12:06;;;;;;;9.32;3.38;;;;;;;;;;4992244;28;20196;-43
2023/04/11 04:14:32;;;;;;;14.32;2.33;;;8.70;99.90;;;;;;4992238;28;20165;-43
2023/04/11 04:16:57;;;;;;;12.02;2.88;;;8.80;99.90;;;;;;4990130;28;20177;-42
2023/04/11 04:19:23;;;;;;;9.43;2.38;;;8.70;99.90;;;;;;4991633;28;20164;-43
2023/04/11 04:21:49;;;;;;;10.57;2.75;;;8.80;99.90;;;;;;4991715;28;20197;-42
2023/04/11 04:24:14;;;;;;;11.45;2.58;;;8.80;99.90;;;;;;4991248;28;20192;-43
2023/04/11 04:26:40;;;;;;;11.52;2.90;;;8.70;99.90;;;;;;4991694;28;20179;-43
2023/04/11 04:29:08;;;;;;;10.80;3.17;;;8.80;99.90;;;;;;4992046;28;20303;-43
2023/04/11 04:31:34;;;;;;;16.60;3.50;;;8.80;99.90;;;;;;4991972;28;20565;-42
2023/04/11 04:34:02;;;;;;;11.13;3.97;;;8.80;99.90;;;;;;4991373;28;20173;-43
2023/04/11 04:36:28;;;;;;;12.27;2.92;;;8.90;99.90;;;;;;4986070;28;20243;-43
2023/04/11 04:38:56;;;;;;;13.50;3.35;;;8.80;99.90;;;;;;4972212;28;20197;-43
2023/04/11 04:41:22;;;;;;;12.20;3.05;;;8.80;99.90;;;;;;4971888;28;20198;-42
2023/04/11 04:43:47;;;;;;;11.98;2.58;;;8.80;99.90;;;;;;4971971;28;20541;-43
2023/04/11 04:46:13;;;;;;;17.20;3.35;;;8.90;99.90;;;;;;4970721;28;20203;-43
2023/04/11 04:48:39;;;;;;;17.27;3.00;;;8.80;99.90;;;;;;4971604;28;20562;-43
2023/04/11 04:51:06;;;;;;;10.50;2.70;;;8.90;99.90;;;;;;4971891;28;20193;-43
2023/04/11 04:53:33;;;;;;;11.80;3.15;;;;;;;;;;4971569;28;20180;-44
2023/04/11 04:56:00;;;;;;;19.58;3.17;;;8.90;99.90;;;;;;4970315;28;20197;-43
2023/04/11 04:58:26;;;;;;;11.90;3.20;;;8.80;99.90;;;;;;4971441;28;20568;-43
2023/04/11 05:00:56;;;;;;;15.30;3.65;;;8.80;99.90;;;;;;4971652;28;20234;-43
2023/04/11 05:03:21;;;;;;;9.50;3.38;;;8.80;99.90;;;;;;4971528;28;20170;-42
2023/04/11 05:05:48;;;;;;;8.70;2.97;;;8.80;99.90;;;;;;4971767;28;20195;-43
2023/04/11 05:08:14;;;;;;;18.40;3.30;;;;;;;;;;4977603;28;20219;-43
2023/04/11 05:10:40;;;;;;;9.02;2.95;;;8.70;99.90;;;;;;4986891;28;20187;-43
2023/04/11 05:13:05;;;;;;;16.27;3.85;;;8.70;99.90;;;;;;4991536;28;20256;-43
2023/04/11 05:15:31;;;;;;;17.13;3.25;;;8.60;99.90;;;;;;4990901;28;20505;-44
2023/04/11 05:17:56;;;;;;;10.23;3.03;;;8.70;99.90;;;;;;4991102;28;20675;-43
2023/04/11 05:20:23;;;;;;;13.30;2.95;;;8.70;99.90;;;;;;4990821;28;20641;-43
2023/04/11 05:22:49;;;;;;;12.63;2.75;;;;;;;;;;4990987;28;20180;-42
2023/04/11 05:25:15;;;;;;;8.70;4.32;;;8.70;99.90;;;;;;4991107;28;20168;-43
2023/04/11 05:27:41;;;;;;;16.80;3.28;;;8.80;99.90;;;;;;4973712;28;20227;-43
2023/04/11 05:30:07;;;;;;;14.75;2.67;;;8.80;99.90;;;;;;4971569;28;20176;-43
2023/04/11 05:32:33;;;;;;;18.67;3.30;;;;;;;;;;4978485;28;20201;-42
2023/04/11 05:34:58;;;;;;;13.70;3.22;;;9.00;99.90;;;;;;4971276;28;20212;-43
2023/04/11 05:37:24;;;;;;;22.15;3.53;;;8.90;99.90;;;;;;4969931;28;20749;-43
2023/04/11 05:39:51;;;;;;;17.75;3.25;;;8.90;99.90;;;;;;4976815;28;20680;-42
2023/04/11 05:42:17;;;;;;;10.52;2.15;;;;;;;;;;4990313;28;20173;-41
2023/04/11 05:44:43;;;;;;;11.55;3.33;;;8.90;99.90;;;;;;4970560;28;20292;-42
2023/04/11 05:47:10;;;;;;;15.00;3.50;;;;;;;;;;4969630;28;20174;-42
2023/04/11 05:49:36;;;;;;;11.90;2.58;;;8.90;99.90;;;;;;4969117;28;20209;-42
2023/04/11 05:52:01;;;;;;;16.52;3.50;;;9.00;99.90;;;;;;5061532;28;20209;-45
2023/04/11 05:54:32;;;;;;;14.82;3.80;;;9.00;99.90;;;;;;5071178;28;20169;-41
2023/04/11 05:56:58;;;;;;;17.13;3.90;;;;;;;;;;5070959;28;20185;-42
2023/04/11 05:59:24;;;;;;;7.93;2.65;;;9.00;99.90;;;;;;5069621;28;20170;-42
2023/04/11 06:01:50;;;;;;;13.57;2.80;;;;;;;;;;5000181;28;20216;-41
2023/04/11 06:04:15;;;;;;;10.20;2.88;;;9.00;99.90;;;;;;4981054;28;20169;-41
2023/04/11 06:06:42;;;;;;;18.05;3.72;;;;;;;;;;4999014;28;20760;-41
2023/04/11 06:09:09;;;;;;;9.23;2.47;;;9.10;99.90;;;;;;5012040;28;20225;-41
2023/04/11 06:11:35;;;;;;;9.20;2.78;;;9.10;99.90;;;;;;4988200;28;20256;-43
2023/04/11 06:14:01;;;;;;;12.88;3.15;;;;;;;;;;4988505;28;20715;-44
2023/04/11 06:16:27;;;;;;;14.32;3.17;;;9.20;99.90;;;;;;4988664;28;20175;-42
2023/04/11 06:18:53;;;;;;;12.70;3.20;;;;;;;;;;4988595;28;20636;-41
2023/04/11 06:21:18;;;;;;;17.42;3.13;;;9.20;99.90;;;;;;4979386;28;20304;-42
2023/04/11 06:23:44;;;;;;;14.00;3.28;;;9.10;99.90;;;;;;4981430;28;20247;-43
2023/04/11 06:26:10;;;;;;;16.65;2.88;;;;;;;;;;4988246;28;20173;-43
2023/04/11 06:28:35;;;;;;;6.75;2.20;;;9.20;99.90;;;;;;4988780;28;20169;-42
2023/04/11 06:31:02;;;;;;;13.45;3.67;;;;;;;;;;4988590;28;20175;-42
2023/04/11 06:33:28;;;;;;;8.75;2.53;;;9.40;99.90;;;;;;4988416;28;20215;-43
2023/04/11 06:35:54;;;;;;;14.07;3.05;;;;;;;;;;4988366;28;20644;-43
2023/04/11 06:38:19;;;;;;;11.18;2.50;;;9.50;99.90;;;;;;4988143;28;20932;-42
2023/04/11 06:40:45;;;;;;;11.77;3.00;;;9.60;99.90;;;;;;4972133;28;20241;-44
2023/04/11 06:43:11;;;;;;;12.82;3.08;;;9.60;99.90;;;;;;4968842;28;20564;-46
2023/04/11 06:45:36;;;;;;;12.52;3.35;;;9.70;99.90;;;;;;4968767;28;20558;-43
2023/04/11 06:48:02;;;;;;;15.02;4.10;;;;;;;;;;4971885;28;20200;-45
2023/04/11 06:50:28;;;;;;;23.35;3.60;;;9.70;99.90;;;;;;4987976;28;20173;-44
2023/04/11 06:52:53;;;;;;;10.45;3.47;;;9.70;99.90;;;;;;4988085;28;20172;-44
2023/04/11 06:55:19;;;;;;;11.75;2.60;;;9.70;99.90;;;;;;4988036;28;20179;-44
2023/04/11 06:57:45;;;;;;;12.43;2.55;;;;;;;;;;4981480;28;20189;-44
2023/04/11 07:00:12;;;;;;;17.20;3.35;;;;;;;;;;4983397;28;20290;-44
2023/04/11 07:02:38;;;;;;;15.52;2.67;;;;;;;;;;4976791;28;20189;-45
2023/04/11 07:05:04;;;;;;;3.75;2.05;;;9.70;99.90;;;;;;4988312;28;20532;-44
2023/04/11 07:07:31;;;;;;;11.90;2.10;;;9.70;99.90;;;;;;5055845;28;20244;-45
2023/04/11 07:09:56;;;;;;;12.98;3.33;;;9.80;99.90;;;;;;5040754;28;20212;-44
2023/04/11 07:12:22;;;;;;;8.23;2.90;;;10.20;99.90;;;;;;4969413;28;20192;-44
2023/04/11 07:14:47;;;;;;;10.20;2.20;;;10.30;99.90;;;;;;4968237;28;20169;-44
2023/04/11 07:17:13;;;;;;;16.10;3.35;;;10.40;99.90;;;;;;4968385;28;20669;-44
2023/04/11 07:19:39;;;;;;;11.85;2.80;;;10.30;99.90;;;;;;4978069;28;20868;-43
2023/04/11 07:22:04;;;;;;;15.07;2.63;;;10.30;99.90;;;;;;4987660;28;20180;-42
2023/04/11 07:24:30;;;;;;;9.48;2.30;;;;;;;;;;4987786;28;20192;-48
2023/04/11 07:27:00;;;;;;;12.50;3.42;;;10.30;99.90;;;;;;4981810;28;20177;-54
2023/04/11 07:29:27;;;;;;;15.88;3.15;;;;;;;;;;4970372;28;20663;-45
2023/04/11 07:31:53;;;;;;;12.82;2.78;;;;;;;;;;4988225;28;20203;-48
2023/04/11 07:34:19;;;;;;;10.35;3.53;;;;;;;;;;4983258;28;20201;-45
2023/04/11 07:36:46;;;;;;;9.65;2.53;;;;;;;;;;4987933;28;20272;-46
2023/04/11 07:39:14;;;;;;;8.45;2.50;;;;;;;;;;4988112;28;20255;-46
2023/04/11 07:41:40;;;;;;;10.32;2.40;;;10.20;99.90;;;;;;4978706;28;20699;-45
2023/04/11 07:44:08;;;;;;;7.13;1.92;;;;;;;;;;4968706;28;20219;-43
2023/04/11 07:46:34;;;;;;;7.75;2.75;;;10.20;99.90;;;;;;4981963;28;20264;-44
2023/04/11 07:49:00;;;;;;;15.35;3.25;;;10.20;99.90;;;;;;4968245;28;20649;-45
2023/04/11 07:51:26;;;;;;;10.45;2.45;;;10.20;99.90;;;;;;4968292;28;20184;-46
2023/04/11 07:53:53;;;;;;;9.35;2.53;;;;;;;;;;4968343;28;20170;-47
2023/04/11 07:56:18;;;;;;;11.68;2.58;;;10.40;99.90;;;;;;4968161;28;20641;-48
2023/04/11 07:58:44;;;;;;;11.90;2.83;;;10.70;99.90;;;;;;4968356;28;20227;-44
2023/04/11 08:01:20;;;;;;;11.10;2.72;;;10.90;99.90;;;;;;4980240;28;20239;-46
2023/04/11 08:03:46;;;;;;;11.50;2.70;;;10.90;99.90;;;;;;4986848;28;20184;-48
2023/04/11 08:06:11;;;;;;;9.00;2.78;;;10.80;99.90;;;;;;4969765;28;20181;-49
2023/04/11 08:08:37;;;;;;;9.50;2.00;;;10.90;99.90;;;;;;4950639;28;20266;-47
2023/04/11 08:11:02;;;;;;;8.63;2.25;;;11.00;99.90;;;;;;4968545;28;20166;-49
2023/04/11 08:13:28;;;;;;;11.80;2.75;;;11.30;99.90;;;;;;4968071;28;20177;-44
2023/04/11 08:15:53;;;;;;;7.07;2.20;;;11.40;99.90;;;;;;4968110;28;20255;-43
2023/04/11 08:18:20;;;;;;;10.18;2.45;;;;;;;;;;4967911;28;20259;-45
2023/04/11 08:20:47;;;;;;;6.13;2.33;;;11.60;99.90;;;;;;4967417;28;20669;-46
2023/04/11 08:23:14;;;;;;;8.88;2.00;;;11.50;99.90;;;;;;4967974;28;20529;-44
2023/04/11 08:25:40;;;;;;;9.40;2.28;;;11.50;99.90;;;;;;4967860;28;20546;-45
2023/04/11 08:28:08;;;;;;;10.45;1.80;;;11.50;99.90;;;;;;4967771;28;20174;-45
2023/04/11 08:30:34;;;;;;;9.02;2.25;;;11.90;99.90;;;;;;4968528;28;20173;-44
2023/04/11 08:33:00;;;;;;;3.50;1.92;;;;;;;;;;4970763;28;20184;-43
2023/04/11 08:35:26;;;;;;;8.90;2.10;;;;;;;;;;4971041;28;20189;-47
2023/04/11 08:37:52;;;;;;;11.68;2.42;;;12.00;99.90;;;;;;4971314;28;20248;-45
2023/04/11 08:40:18;;;;;;;10.98;3.00;;;12.10;99.90;;;;;;4979678;28;20633;-40
2023/04/11 08:42:44;;;;;;;11.23;2.65;;;11.70;99.90;;;;;;4979160;28;20260;-44
2023/04/11 08:45:10;;;;;;;6.25;2.15;;;11.40;99.90;;;;;;4970988;28;20583;-47
2023/04/11 08:47:36;;;;;;;13.18;2.60;;;;;;;;;;4984065;28;20187;-41
2023/04/11 08:50:03;;;;;;;11.68;1.98;;;11.80;99.90;;;;;;4990609;28;20169;-43
2023/04/11 08:52:30;;;;;;;6.43;2.20;;;11.80;99.90;;;;;;4990457;28;20172;-46
2023/04/11 08:54:55;;;;;;;5.68;1.73;;;11.80;99.90;;;;;;4989970;28;20230;-45
2023/04/11 08:57:26;;;;;;;9.38;1.95;;;11.60;99.90;;;;;;4990181;28;20165;-44
2023/04/11 08:59:54;;;;;;;5.72;1.90;;;11.40;99.90;;;;;;4988871;28;20629;-42
2023/04/11 09:02:20;;;;;;;5.28;1.98;;;;;;;;;;4990398;28;20226;-44
2023/04/11 09:04:46;;;;;;;8.82;2.83;;;11.20;99.90;;;;;;4990227;28;20192;-43
2023/04/11 09:07:13;;;;;;;5.65;1.75;;;11.00;99.90;;;;;;4989976;28;20215;-44
2023/04/11 09:09:39;;;;;;;7.53;1.95;;;;;;;;;;4985426;28;20319;-43
2023/04/11 09:12:05;;;;;;;4.47;1.80;;;11.20;99.90;;;;;;4971274;28;20557;-44
2023/04/11 09:14:31;;;;;;;7.68;2.10;;;11.30;99.90;;;;;;4970998;28;20173;-43
2023/04/11 09:17:03;;;;;;;9.73;2.00;;;11.60;99.90;;;;;;4970423;28;20182;-44
2023/04/11 09:19:31;;;;;;;5.35;1.70;;;11.80;99.90;;;;;;4970543;28;20174;-44
2023/04/11 09:22:01;;;;;;;3.97;1.10;;;11.80;99.90;;;;;;4970515;28;20279;-44
2023/04/11 09:24:28;;;;;;;10.48;2.42;;;11.70;99.90;;;;;;4970420;28;20161;-44
2023/04/11 09:27:14;;;;;;;8.32;1.92;;;11.70;99.90;;;;;;4970498;28;20180;-44
2023/04/11 09:29:44;;;;;;;7.07;2.38;;;11.40;99.90;;;;;;4970154;28;20536;-44
2023/04/11 09:32:34;;;;;;;11.00;2.92;;;11.50;99.90;;;;;;4970317;28;20161;-44
2023/04/11 09:35:09;;;;;;;5.85;2.20;;;12.10;99.90;;;;;;4970236;28;20201;-44
2023/04/11 09:37:43;;;;;;;7.80;2.10;;;12.20;99.90;;;;;;4970216;28;20241;-42
2023/04/11 09:40:10;;;;;;;8.52;2.00;;;12.40;99.90;;;;;;4970082;28;20205;-43
2023/04/11 09:42:36;;;;;;;13.38;2.90;;;12.70;99.90;;;;;;4969866;28;20215;-42
2023/04/11 09:45:03;;;;;;;4.82;1.77;;;;;;;;;;4970517;28;20264;-41
2023/04/11 09:47:35;;;;;;;5.55;1.55;;;12.60;99.90;;;;;;4969931;28;20244;-42
2023/04/11 09:50:01;;;;;;;9.88;2.42;;;12.80;99.90;;;;;;4981099;28;20192;-43
2023/04/11 09:52:26;;;;;;;5.88;1.98;;;13.10;99.90;;;;;;4988624;28;20188;-43
2023/04/11 09:54:53;;;;;;;7.78;2.42;;;;;;;;;;4989203;28;20169;-44
2023/04/11 09:57:21;;;;;;;7.35;2.20;;;12.80;99.90;;;;;;4989221;28;20544;-43
2023/04/11 09:59:48;;;;;;;10.73;2.08;;;12.90;99.90;;;;;;4989080;28;20230;-44
2023/04/11 10:02:14;;;;;;;4.72;1.77;;;12.90;99.90;;;;;;4979631;28;20196;-44
2023/04/11 10:04:40;;;;;;;6.68;1.83;;;;;;;;;;4969844;28;20193;-43
2023/04/11 10:07:12;;;;;;;11.88;2.47;;;12.90;99.90;;;;;;4969688;28;20251;-43
2023/04/11 10:09:40;;;;;;;10.70;2.72;;;12.40;99.90;;;;;;4969302;28;20228;-43
2023/04/11 10:12:06;;;;;;;13.40;2.78;;;12.90;99.90;;;;;;4969717;28;20173;-43
2023/04/11 10:14:38;;;;;;;5.13;1.60;;;13.30;99.90;;;;;;4969826;28;20170;-43
2023/04/11 10:17:20;;;;;;;8.50;2.28;;;13.40;99.90;;;;;;4969719;28;20203;-43
2023/04/11 10:19:47;;;;;;;11.73;2.10;;;13.40;99.90;;;;;;4969476;28;20248;-43
2023/04/11 10:22:45;;;;;;;9.95;2.15;;;13.40;99.90;;;;;;4969451;28;20180;-42
2023/04/11 10:25:18;;;;;;;6.55;2.05;;;13.40;99.90;;;;;;4969671;28;20177;-42
2023/04/11 10:27:48;;;;;;;3.90;1.30;;;12.80;99.90;;;;;;4969206;28;20169;-42
2023/04/11 10:30:13;;;;;;;7.05;1.70;;;12.60;99.90;;;;;;4985949;28;20683;-43
2023/04/11 10:32:44;;;;;;;7.85;1.92;;;13.10;99.90;;;;;;4988734;28;20177;-42
2023/04/11 10:35:15;;;;;;;4.90;1.73;;;13.20;99.90;;;;;;4988821;28;20200;-43
2023/04/11 10:37:41;;;;;;;8.30;2.10;;;13.30;99.90;;;;;;4979143;28;20629;-42
2023/04/11 10:40:10;;;;;;;7.80;1.85;;;;;;;;;;4981646;28;20205;-43
2023/04/11 10:42:41;;;;;;;3.05;1.70;;;13.30;99.90;;;;;;4988518;28;20645;-43
2023/04/11 10:45:23;;;;;;;3.65;1.70;;;13.50;99.90;;;;;;4987419;28;20176;-41
2023/04/11 10:48:04;;;;;;;10.63;1.90;;;13.20;99.90;;;;;;4988456;28;20172;-42
2023/04/11 10:50:30;;;;;;;7.63;1.85;;;13.60;99.90;;;;;;4950290;28;20208;-42
2023/04/11 10:52:57;;;;;;;2.47;1.50;;;13.70;99.90;;;;;;4950115;28;20517;-41
2023/04/11 10:55:28;;;;;;;4.03;1.70;;;13.80;99.90;;;;;;4948836;28;20159;-42
2023/04/11 10:58:10;;;;;;;5.78;1.73;;;14.00;99.90;;;;;;4949751;28;20189;-43
2023/04/11 11:00:51;;;;;;;3.75;1.90;;;14.10;99.90;;;;;;4949491;28;20217;-41
2023/04/11 11:03:23;;;;;;;6.43;2.05;;;13.90;99.90;;;;;;4949830;28;20166;-41
2023/04/11 11:06:01;;;;;;;13.93;2.47;;;13.60;99.90;;;;;;4949488;28;20170;-43
2023/04/11 11:08:29;;;;;;;6.05;2.00;;;13.90;99.90;;;;;;4953398;28;20244;-43
2023/04/11 11:11:02;;;;;;;9.00;2.17;;;14.00;99.90;;;;;;4975437;28;20183;-43
2023/04/11 11:13:43;;;;;;;6.82;1.80;;;13.90;99.90;;;;;;4988196;28;20175;-43
2023/04/11 11:16:13;;;;;;;6.78;1.67;;;13.60;99.90;;;;;;4988167;28;20732;-42
2023/04/11 11:18:39;;;;;;;8.60;1.80;;;13.70;99.90;;;;;;4988121;28;20632;-42
2023/04/11 11:21:05;;;;;;;5.93;2.10;;;;;;;;;;4988536;28;20257;-41
2023/04/11 11:23:31;;;;;;;3.40;1.73;;;13.90;99.90;;;;;;4988532;28;20169;-41
2023/04/11 11:25:58;;;;;;;3.90;1.70;;;13.40;99.90;;;;;;4987991;28;20176;-41
2023/04/11 11:28:24;;;;;;;6.65;2.72;;;13.50;99.90;;;;;;4988174;28;20311;-41
2023/04/11 11:30:54;;;;;;;5.53;1.98;;;13.20;99.90;;;;;;4971605;28;20266;-41
2023/04/11 11:33:22;;;;;;;5.95;1.40;;;13.50;99.90;;;;;;4949357;28;20177;-42
2023/04/11 11:36:02;;;;;;;4.15;1.67;;;13.90;99.90;;;;;;4949174;28;20536;-41
2023/04/11 11:38:29;;;;;;;5.00;1.60;;;13.50;99.90;;;;;;4949214;28;20170;-41
2023/04/11 11:40:55;;;;;;;6.45;1.80;;;13.40;99.90;;;;;;4948957;28;20359;-41
2023/04/11 11:43:21;;;;;;;10.25;2.47;;;;;;;;;;4948929;28;20210;-41
2023/04/11 11:46:15;;;;;;;5.43;1.75;;;14.00;99.90;;;;;;4949189;28;20531;-42
2023/04/11 11:48:42;;;;;;;5.50;1.70;;;14.00;99.90;;;;;;4949022;28;20527;-41
2023/04/11 11:51:08;;;;;;;5.15;1.70;;;14.00;99.90;;;;;;4949320;28;20255;-41
2023/04/11 11:53:34;;;;;;;4.50;1.75;;;13.80;99.90;;;;;;4949564;28;20631;-41
2023/04/11 11:56:10;;;;;;;6.15;1.75;;;13.50;99.90;;;;;;4949010;28;20175;-43
2023/04/11 11:58:42;;;;;;;7.28;2.00;;;13.50;99.90;;;;;;4949207;28;20236;-41
2023/04/11 12:01:13;;;;;;;6.72;2.25;;;13.80;99.90;;;;;;4960843;28;20303;-41
2023/04/11 12:03:39;;;;;;;6.68;2.22;;;13.40;99.90;;;;;;4968015;28;20189;-41
2023/04/11 12:06:08;;;;;;;10.23;2.13;;;13.60;99.90;;;;;;4969727;28;20178;-41
2023/04/11 12:08:42;;;;;;;7.43;1.80;;;13.90;99.90;;;;;;4971808;28;20224;-42
2023/04/11 12:11:11;;;;;;;6.55;2.42;;;14.30;99.90;;;;;;4971414;28;20164;-41
2023/04/11 12:13:36;;;;;;;7.68;1.75;;;14.00;99.90;;;;;;4971668;28;20174;-41
2023/04/11 12:16:02;;;;;;;4.80;1.48;;;14.00;99.90;;;;;;4971602;28;20257;-42
2023/04/11 12:18:28;;;;;;;9.15;1.80;;;;;;;;;;4971242;28;20542;-41
2023/04/11 12:20:54;;;;;;;3.97;1.60;;;14.30;99.90;;;;;;4971230;28;20227;-41
2023/04/11 12:23:20;;;;;;;7.07;2.20;;;14.10;99.90;;;;;;4971407;28;20173;-41
2023/04/11 12:25:46;;;;;;;3.00;1.75;;;13.80;99.90;;;;;;4971173;28;20196;-41
2023/04/11 12:28:12;;;;;;;3.47;1.50;;;13.90;99.90;;;;;;4971069;28;20183;-42
2023/04/11 12:30:38;;;;;;;5.43;1.95;;;14.30;99.90;;;;;;4977428;28;20181;-44
2023/04/11 12:33:05;;;;;;;4.28;1.83;;;14.80;99.90;;;;;;4992097;28;20172;-44
2023/04/11 12:35:31;;;;;;;4.95;1.70;;;15.00;99.90;;;;;;4992187;28;20589;-44
2023/04/11 12:37:57;;;;;;;6.70;1.88;;;15.40;99.90;;;;;;4992180;28;20234;-42
2023/04/11 12:40:23;;;;;;;6.00;2.17;;;15.20;97.70;;;;;;4991724;28;20664;-42
2023/04/11 12:42:49;;;;;;;4.82;1.42;;;;;;;;;;4991900;28;20255;-43
2023/04/11 12:45:15;;;;;;;4.07;1.33;;;14.90;95.80;;;;;;4991828;28;20165;-43
2023/04/11 12:47:41;;;;;;;5.15;1.60;;;15.00;93.10;;;;;;4991744;28;20180;-43
2023/04/11 12:50:08;;;;;;;6.20;1.33;;;15.20;93.30;;;;;;4991806;28;20245;-43
2023/04/11 12:52:34;;;;;;;4.60;1.75;;;15.10;92.20;;;;;;4991980;28;20636;-44
2023/04/11 12:55:00;;;;;;;1.52;1.17;;;15.10;91.60;;;;;;4991975;28;20695;-43
2023/04/11 12:57:26;;;;;;;5.35;1.98;;;15.40;92.30;;;;;;4991593;28;20260;-42
2023/04/11 12:59:52;;;;;;;4.57;1.52;;;;;;;;;;4991388;28;20514;-42
2023/04/11 13:02:19;;;;;;;3.10;1.35;;;15.40;90.80;;;;;;4972192;28;20188;-41